Briefing drone pour Arpajon-sur-cere

Rechercher une autre localisation

Conditions de vol :


Nous sommes le : Dimanche 07 mars 2021
Il est 14:19 UTC (15:19 LT)

Lever de soleil : 05:49 UTC (06:49 LT)
Coucher de soleil : 18:12 UTC (19:12 LT)

Météo

L'essentiel des conditions de vol

VIGILANCE MÉTÉO FRANCE - Cantal (15)
Pas de vigilances particulieres
METAR de LFLW
LFLW 071400Z AUTO 18005KT 140V250 9999 BKN034 OVC056 10/05 Q1019 TEMPO 4000 -SHRA SCT017CB

Date d'émission: 07/03/2021
Heure d'émission: 14:00 UTC
Vent: 180° (variable du 140° au 250°) pour 5 KT (9 km/h)
Visibilité horizontale: > 10 km
Plafond :
- Nuages morcelés à 3400ft (1036m)
- Couvert à 5600ft (1707m)
Température: 10 °C
Point de rosée: 5 °C
Humidité: 71%
Pression (QNH): 1019 hPa

Temporairement:

Visibilité horizontale : 4000 m
Plafond :
- Nuages épars à 1700ft (518m)
Conditions : Faible averses de pluie
Prévision 24h pour Aurillac (1 km)
Vent : 65° pour 0 KT (1 km/h)
Temperature Maxi: 7 °C
Temperature Min: 7 °C
Humidité : 79%
Condition : Partiellement nuageux


WEBCAM POUR ARPAJON-SUR-CERE

Réglementation

Voler en sécurité

CARTES AERONAUTIQUE 1/500.000
CARTES VAC (LFLW)
SUP AIP




Chargement des AIP...
NOTAM (ARPAJON-SUR-CERE + Terrain à proximité / FIR )




Chargement des NOTAMS...
CONTACT PREFECTURE 15


Avertissement : Les données mises à disposition sont indicatives. Oxygène Drone ne pourra être tenu responsable de dégâts causés aux biens et aux personnes.